createdAt,value
2023-04-08T00:02:08.239Z,100950.59
2023-04-08T00:04:37.175Z,100949.56
2023-04-08T00:07:09.883Z,100947.52
2023-04-08T00:09:43.709Z,100947.45
2023-04-08T00:12:17.012Z,100946.27
2023-04-08T00:14:48.494Z,100947.36
2023-04-08T00:17:18.389Z,100944.16
2023-04-08T00:19:51.340Z,100941.89
2023-04-08T00:22:35.483Z,100942.91
2023-04-08T00:25:07.822Z,100938.94
2023-04-08T00:27:46.818Z,100936.88
2023-04-08T00:30:16.632Z,100935.17
2023-04-08T00:32:47.044Z,100933.05
2023-04-08T00:35:16.494Z,100933.35
2023-04-08T02:01:35.852Z,100954.33
2023-04-08T02:14:23.770Z,100957.08
2023-04-08T02:24:16.789Z,100950.17
2023-04-08T02:27:39.801Z,100947.59
2023-04-08T02:33:56.776Z,100952.05
2023-04-08T02:37:39.713Z,100950.96
2023-04-08T02:40:23.767Z,100956.75
2023-04-08T02:46:23.885Z,100950.41
2023-04-08T03:59:59.064Z,101005.11
2023-04-08T04:03:37.848Z,101002.20
2023-04-08T04:06:40.555Z,101008.48
2023-04-08T04:09:11.663Z,101006.05
2023-04-08T04:12:09.420Z,101005.34
2023-04-08T04:14:50.143Z,101012.23
2023-04-08T04:17:24.776Z,101015.05
2023-04-08T04:19:56.568Z,101013.08
2023-04-08T04:22:30.844Z,101017.13
2023-04-08T04:25:04.407Z,101018.61
2023-04-08T04:27:37.093Z,101021.70
2023-04-08T04:30:07.621Z,101017.77
2023-04-08T04:32:38.219Z,101014.92
2023-04-08T04:35:09.207Z,101017.48
2023-04-08T04:37:38.624Z,101012.63
2023-04-08T04:40:11.717Z,101011.21
2023-04-08T04:42:42.602Z,101012.08
2023-04-08T04:45:11.602Z,101013.30
2023-04-08T04:47:40.572Z,101012.36
2023-04-08T04:50:10.305Z,101012.99
2023-04-08T04:52:44.566Z,101016.48
2023-04-08T04:55:56.506Z,101019.39
2023-04-08T05:17:39.422Z,101026.54
2023-04-08T05:24:11.812Z,101032.87
2023-04-08T05:31:33.926Z,101034.31
2023-04-08T05:35:09.277Z,101034.05
2023-04-08T05:44:31.128Z,101053.05
2023-04-08T05:47:01.458Z,101051.30
2023-04-08T05:49:51.335Z,101056.20
2023-04-08T05:54:04.831Z,101055.38
2023-04-08T05:58:05.202Z,101059.88
2023-04-08T06:00:34.393Z,101066.73
2023-04-08T06:03:20.554Z,101067.98
2023-04-08T06:05:50.684Z,101074.36
2023-04-08T06:08:20.100Z,101075.74
2023-04-08T06:10:53.699Z,101079.25
2023-04-08T06:13:25.859Z,101074.84
2023-04-08T06:15:54.363Z,101076.25
2023-04-08T06:18:25.029Z,101084.63
2023-04-08T06:20:55.408Z,101086.64
2023-04-08T06:23:24.524Z,101089.50
2023-04-08T06:25:54.278Z,101077.93
2023-04-08T06:28:22.897Z,101073.76
2023-04-08T06:30:52.285Z,101066.51
2023-04-08T06:33:21.361Z,101061.04
2023-04-08T06:35:50.393Z,101063.27
2023-04-08T06:38:21.568Z,101062.21
2023-04-08T06:40:50.138Z,101064.08
2023-04-08T06:43:19.728Z,101068.80
2023-04-08T06:45:48.753Z,101067.77
2023-04-08T06:48:19.409Z,101071.84
2023-04-08T06:50:47.900Z,101071.21
2023-04-08T06:53:16.360Z,101076.06
2023-04-08T06:55:45.058Z,101074.30
2023-04-08T06:58:14.065Z,101076.06
2023-04-08T07:04:33.804Z,101083.92
2023-04-08T07:07:02.605Z,101085.60
2023-04-08T07:09:34.970Z,101086.76
2023-04-08T07:12:14.893Z,101089.19
2023-04-08T07:15:32.405Z,101090.83
2023-04-08T07:18:04.989Z,101093.51
2023-04-08T07:20:38.534Z,101091.14
2023-04-08T07:23:06.946Z,101093.08
2023-04-08T07:25:36.804Z,101095.83
2023-04-08T07:28:05.720Z,101094.63
2023-04-08T07:30:36.129Z,101097.21
2023-04-08T07:33:04.696Z,101094.66
2023-04-08T07:35:38.999Z,101087.71
2023-04-08T07:38:11.743Z,101093.98
2023-04-08T07:40:40.582Z,101098.45
2023-04-08T07:43:09.976Z,101102.80
2023-04-08T07:45:39.006Z,101100.58
2023-04-08T07:48:08.558Z,101097.83
2023-04-08T07:51:08.532Z,101101.88
2023-04-08T07:53:48.256Z,101104.98
2023-04-08T07:56:18.630Z,101116.79
2023-04-08T07:58:48.743Z,101118.66
2023-04-08T08:01:20.311Z,101118.48
2023-04-08T08:03:53.479Z,101116.89
2023-04-08T08:06:23.152Z,101117.10
2023-04-08T08:08:53.298Z,101123.23
2023-04-08T08:11:22.881Z,101130.22
2023-04-08T08:13:53.910Z,101136.89
2023-04-08T08:16:29.222Z,101143.34
2023-04-08T08:18:58.765Z,101143.79
2023-04-08T08:21:33.708Z,101144.92
2023-04-08T08:24:02.492Z,101138.58
2023-04-08T08:26:31.508Z,101138.87
2023-04-08T08:29:03.993Z,101138.19
2023-04-08T08:31:33.122Z,101136.81
2023-04-08T08:34:02.026Z,101133.11
2023-04-08T08:36:32.842Z,101136.30
2023-04-08T08:39:03.385Z,101136.64
2023-04-08T08:41:36.325Z,101134.99
2023-04-08T08:44:06.757Z,101143.15
2023-04-08T08:46:35.761Z,101148.69
2023-04-08T08:49:05.153Z,101151.98
2023-04-08T08:51:34.339Z,101142.36
2023-04-08T08:54:04.814Z,101148.67
2023-04-08T08:56:34.606Z,101146.83
2023-04-08T08:59:05.004Z,101138.69
2023-04-08T09:01:41.431Z,101138.81
2023-04-08T09:04:23.004Z,101145.02
2023-04-08T09:07:10.027Z,101139.83
2023-04-08T09:10:00.231Z,101137.44
2023-04-08T09:12:56.679Z,101150.15
2023-04-08T09:15:28.296Z,101145.19
2023-04-08T09:18:00.161Z,101140.73
2023-04-08T09:20:38.139Z,101143.17
2023-04-08T09:23:08.732Z,101145.17
2023-04-08T09:25:41.423Z,101148.11
2023-04-08T09:28:32.665Z,101146.99
2023-04-08T09:31:01.544Z,101151.31
2023-04-08T09:33:32.437Z,101141.11
2023-04-08T09:36:02.593Z,101138.71
2023-04-08T09:38:32.066Z,101137.38
2023-04-08T09:41:00.993Z,101138.59
2023-04-08T09:43:29.847Z,101141.67
2023-04-08T09:46:06.388Z,101139.42
2023-04-08T09:48:37.803Z,101134.63
2023-04-08T09:51:06.564Z,101135.33
2023-04-08T09:53:39.267Z,101128.67
2023-04-08T09:56:08.981Z,101126.20
2023-04-08T09:58:59.791Z,101134.20
2023-04-08T10:01:53.188Z,101137.75
2023-04-08T10:04:23.242Z,101132.88
2023-04-08T10:06:58.016Z,101131.34
2023-04-08T10:09:27.544Z,101127.27
2023-04-08T10:11:56.193Z,101125.45
2023-04-08T10:14:28.929Z,101125.17
2023-04-08T10:17:17.077Z,101134.30
2023-04-08T10:19:48.341Z,101126.27
2023-04-08T10:22:29.620Z,101119.23
2023-04-08T10:25:17.315Z,101114.09
2023-04-08T10:27:46.017Z,101121.61
2023-04-08T10:30:31.852Z,101117.61
2023-04-08T10:33:01.173Z,101111.83
2023-04-08T10:35:37.846Z,101117.23
2023-04-08T10:38:06.740Z,101116.42
2023-04-08T10:40:39.788Z,101120.59
2023-04-08T10:43:13.230Z,101118.60
2023-04-08T10:45:48.431Z,101113.81
2023-04-08T10:48:24.917Z,101108.27
2023-04-08T10:50:58.616Z,101103.73
2023-04-08T10:53:31.187Z,101098.69
2023-04-08T10:56:16.736Z,101103.02
2023-04-08T10:58:52.819Z,101100.89
2023-04-08T11:01:22.885Z,101097.79
2023-04-08T11:03:52.285Z,101100.97
2023-04-08T11:06:23.689Z,101092.62
2023-04-08T11:08:53.237Z,101090.48
2023-04-08T11:11:21.910Z,101081.05
2023-04-08T11:14:10.926Z,101084.77
2023-04-08T11:17:07.757Z,101078.83
2023-04-08T11:19:44.927Z,101080.77
2023-04-08T11:22:48.309Z,101091.35
2023-04-08T11:25:37.076Z,101084.55
2023-04-08T11:28:06.199Z,101084.10
2023-04-08T11:30:35.191Z,101084.84
2023-04-08T11:36:54.105Z,101080.16
2023-04-08T11:40:53.720Z,101088.36
2023-04-08T11:43:39.237Z,101094.58
2023-04-08T11:50:08.824Z,101094.70
2023-04-08T11:52:48.844Z,101102.72
2023-04-08T11:59:52.174Z,101094.61
2023-04-08T12:03:13.553Z,101093.06
2023-04-08T12:05:43.937Z,101089.16
2023-04-08T12:08:51.172Z,101092.02
2023-04-08T12:19:42.412Z,101092.14
2023-04-08T12:23:53.907Z,101094.85
2023-04-08T12:28:13.176Z,101093.63
2023-04-08T12:31:48.453Z,101095.81
2023-04-08T12:34:57.044Z,101090.80
2023-04-08T12:38:50.052Z,101089.90
2023-04-08T12:54:45.809Z,101082.51
2023-04-08T13:02:45.256Z,101084.24
2023-04-08T13:05:57.265Z,101083.86
2023-04-08T13:08:27.805Z,101085.75
2023-04-08T13:11:16.780Z,101079.49
2023-04-08T13:13:49.748Z,101081.23
2023-04-08T13:16:22.197Z,101088.35
2023-04-08T13:18:54.121Z,101084.31
2023-04-08T13:21:28.431Z,101087.17
2023-04-08T13:24:01.996Z,101087.52
2023-04-08T13:27:04.624Z,101081.52
2023-04-08T13:30:33.208Z,101087.61
2023-04-08T13:33:48.250Z,101083.68
2023-04-08T13:37:18.409Z,101087.34
2023-04-08T13:40:50.066Z,101081.11
2023-04-08T13:58:58.383Z,101080.98
2023-04-08T14:02:31.456Z,101082.58
2023-04-08T14:06:01.828Z,101080.33
2023-04-08T14:09:35.460Z,101075.53
2023-04-08T14:16:37.496Z,101068.19
2023-04-08T14:23:32.579Z,101075.25
2023-04-08T14:27:12.503Z,101073.17
2023-04-08T14:30:43.254Z,101081.41
2023-04-08T14:33:57.424Z,101073.29
2023-04-08T14:48:21.647Z,101088.35
2023-04-08T14:51:56.257Z,101089.17
2023-04-08T14:55:39.704Z,101086.22
2023-04-08T15:04:00.937Z,101098.38
2023-04-08T15:14:16.946Z,101090.64
2023-04-08T15:17:57.339Z,101097.85
2023-04-08T15:21:46.401Z,101101.74
2023-04-08T15:25:20.661Z,101097.38
2023-04-08T15:32:35.424Z,101101.35
2023-04-08T15:36:11.385Z,101095.50
2023-04-08T15:39:50.359Z,101095.12
2023-04-08T15:43:29.143Z,101093.52
2023-04-08T15:47:19.174Z,101100.55
2023-04-08T15:57:16.341Z,101091.63
2023-04-08T16:01:02.159Z,101087.38
2023-04-08T16:07:12.298Z,101094.77
2023-04-08T16:10:56.157Z,101097.70
2023-04-08T16:20:51.752Z,101102.64
2023-04-08T16:23:42.294Z,101101.92
2023-04-08T16:30:45.409Z,101102.61
2023-04-08T16:33:15.311Z,101106.66
2023-04-08T16:35:51.091Z,101107.92
2023-04-08T16:38:41.916Z,101111.86
2023-04-08T16:41:13.429Z,101107.96
2023-04-08T17:00:51.792Z,101139.94
2023-04-08T17:07:58.239Z,101147.44
2023-04-08T17:10:51.537Z,101159.41
2023-04-08T17:13:20.730Z,101167.20
2023-04-08T17:15:53.286Z,101168.32
2023-04-08T17:18:25.114Z,101174.20
2023-04-08T17:20:57.592Z,101183.23
2023-04-08T17:23:31.289Z,101184.92
2023-04-08T17:26:01.586Z,101187.48
2023-04-08T17:28:32.833Z,101193.20
2023-04-08T17:31:05.856Z,101196.20
2023-04-08T17:33:36.259Z,101201.98
2023-04-08T17:36:08.699Z,101213.95
2023-04-08T17:38:49.562Z,101216.27
2023-04-08T17:41:40.205Z,101223.51
2023-04-08T17:44:16.012Z,101229.67
2023-04-08T17:47:03.241Z,101230.34
2023-04-08T17:49:39.060Z,101230.15
2023-04-08T17:52:12.906Z,101231.70
2023-04-08T17:55:03.113Z,101234.59
2023-04-08T17:57:49.984Z,101241.34
2023-04-08T18:00:52.360Z,101252.86
2023-04-08T18:03:51.009Z,101254.40
2023-04-08T18:06:26.855Z,101255.60
2023-04-08T18:09:18.481Z,101261.46
2023-04-08T18:11:57.747Z,101265.58
2023-04-08T18:14:38.200Z,101277.91
2023-04-08T18:17:13.744Z,101283.69
2023-04-08T18:19:43.912Z,101285.85
2023-04-08T18:22:24.823Z,101278.40
2023-04-08T18:24:56.433Z,101279.64
2023-04-08T18:27:27.286Z,101282.15
2023-04-08T18:30:16.532Z,101285.77
2023-04-08T18:32:49.421Z,101285.65
2023-04-08T18:35:40.955Z,101278.61
2023-04-08T18:38:22.340Z,101280.51
2023-04-08T18:41:15.396Z,101280.20
2023-04-08T18:43:52.162Z,101285.83
2023-04-08T18:46:25.665Z,101283.20
2023-04-08T18:49:03.286Z,101286.54
2023-04-08T18:51:34.568Z,101280.59
2023-04-08T18:54:10.800Z,101281.34
2023-04-08T18:56:42.634Z,101287.95
2023-04-08T18:59:15.672Z,101281.48
2023-04-08T19:01:45.849Z,101281.52
2023-04-08T19:04:20.242Z,101288.26
2023-04-08T19:06:52.040Z,101291.36
2023-04-08T19:09:21.198Z,101294.25
2023-04-08T19:11:53.554Z,101294.31
2023-04-08T19:14:26.452Z,101295.80
2023-04-08T19:16:59.589Z,101294.05
2023-04-08T19:19:28.852Z,101294.00
2023-04-08T19:21:58.680Z,101293.67
2023-04-08T19:24:28.571Z,101290.56
2023-04-08T19:26:58.239Z,101294.65
2023-04-08T19:29:34.325Z,101289.85
2023-04-08T19:32:04.455Z,101290.59
2023-04-08T19:34:37.348Z,101290.86
2023-04-08T19:37:07.070Z,101288.70
2023-04-08T19:39:35.779Z,101282.52
2023-04-08T19:42:05.384Z,101277.14
2023-04-08T19:44:35.303Z,101269.55
2023-04-08T19:47:07.764Z,101266.70
2023-04-08T19:49:36.912Z,101263.25
2023-04-08T19:52:05.634Z,101260.34
2023-04-08T19:54:44.318Z,101259.98
2023-04-08T19:57:17.145Z,101255.48
2023-04-08T19:59:50.081Z,101256.98
2023-04-08T20:02:19.960Z,101253.50
2023-04-08T20:04:52.860Z,101256.17
2023-04-08T20:07:21.484Z,101253.71
2023-04-08T20:09:51.652Z,101248.45
2023-04-08T20:12:22.450Z,101246.93
2023-04-08T20:14:57.548Z,101243.17
2023-04-08T20:17:28.224Z,101235.07
2023-04-08T20:19:59.419Z,101231.41
2023-04-08T20:22:29.067Z,101224.11
2023-04-08T20:25:03.729Z,101226.20
2023-04-08T20:27:35.974Z,101227.10
2023-04-08T20:30:06.162Z,101229.08
2023-04-08T20:32:35.034Z,101228.27
2023-04-08T20:35:05.003Z,101229.13
2023-04-08T20:37:34.033Z,101227.86
2023-04-08T20:40:08.529Z,101220.65
2023-04-08T20:42:38.842Z,101223.42
2023-04-08T20:45:08.938Z,101220.48
2023-04-08T20:47:39.548Z,101217.66
2023-04-08T20:50:09.376Z,101219.25
2023-04-08T20:52:46.117Z,101216.07
2023-04-08T20:55:16.600Z,101220.02
2023-04-08T20:57:45.392Z,101218.19
2023-04-08T21:00:16.232Z,101220.94
2023-04-08T21:02:45.550Z,101220.34
2023-04-08T21:05:14.610Z,101223.52
2023-04-08T21:07:44.978Z,101219.87
2023-04-08T21:10:15.227Z,101219.73
2023-04-08T21:12:49.087Z,101224.11
2023-04-08T21:15:33.771Z,101221.45
2023-04-08T21:18:10.995Z,101223.94
2023-04-08T21:21:10.901Z,101224.92
2023-04-08T21:24:01.379Z,101223.77
2023-04-08T21:26:31.790Z,101224.52
2023-04-08T21:29:16.869Z,101221.78
2023-04-08T21:31:45.752Z,101222.83
2023-04-08T21:34:16.485Z,101225.13
2023-04-08T21:37:13.289Z,101226.33
2023-04-08T21:41:13.389Z,101221.15
2023-04-08T21:44:48.972Z,101217.30
2023-04-08T21:48:16.674Z,101217.73
2023-04-08T21:51:52.560Z,101225.27
2023-04-08T21:55:31.556Z,101224.25
2023-04-08T21:59:33.491Z,101221.58
2023-04-08T22:03:06.779Z,101221.89
2023-04-08T22:07:13.225Z,101220.30
2023-04-08T22:09:43.668Z,101222.28
2023-04-08T22:12:12.253Z,101224.09
2023-04-08T22:14:44.530Z,101222.52
2023-04-08T22:17:14.112Z,101226.14
2023-04-08T22:19:42.624Z,101224.96
2023-04-08T22:22:11.901Z,101225.59
2023-04-08T22:24:41.938Z,101223.94
2023-04-08T22:27:11.045Z,101224.34
2023-04-08T22:29:39.920Z,101227.40
2023-04-08T22:32:08.918Z,101230.76
2023-04-08T22:34:37.872Z,101231.13
2023-04-08T22:37:06.451Z,101235.45
2023-04-08T22:39:37.723Z,101237.88
2023-04-08T22:42:06.260Z,101238.52
2023-04-08T22:44:35.436Z,101237.17
2023-04-08T22:47:04.745Z,101237.21
2023-04-08T22:49:33.357Z,101240.03
2023-04-08T22:52:03.043Z,101245.50
2023-04-08T22:54:31.769Z,101245.42
2023-04-08T22:57:02.014Z,101244.64
2023-04-08T22:59:33.640Z,101244.93
2023-04-08T23:02:02.362Z,101242.34
2023-04-08T23:04:31.683Z,101244.23
2023-04-08T23:07:04.957Z,101245.02
2023-04-08T23:09:33.861Z,101247.23
2023-04-08T23:12:02.736Z,101248.10
2023-04-08T23:14:33.417Z,101254.30
2023-04-08T23:17:04.188Z,101255.09
2023-04-08T23:19:33.999Z,101259.61
2023-04-08T23:22:05.830Z,101258.98
2023-04-08T23:24:35.478Z,101259.22
2023-04-08T23:27:04.426Z,101259.62
2023-04-08T23:29:34.030Z,101256.30
2023-04-08T23:32:02.427Z,101258.27
2023-04-08T23:34:31.401Z,101258.28
2023-04-08T23:37:04.587Z,101254.73
2023-04-08T23:39:35.057Z,101254.48
2023-04-08T23:42:03.673Z,101256.13
2023-04-08T23:44:33.949Z,101258.42
2023-04-08T23:47:02.625Z,101258.10
2023-04-08T23:49:31.167Z,101259.42
2023-04-08T23:52:00.174Z,101256.84
2023-04-08T23:54:33.277Z,101259.37
2023-04-08T23:57:02.153Z,101257.70
2023-04-08T23:59:31.003Z,101258.95
